sensor_id;sensor_type;location;lat;lon;timestamp;P1;durP1;ratioP1;P2;durP2;ratioP2
11568;SDS011;5840;46.894;15.542;2023-03-01T00:01:27;23.43;;;20.93;;
11568;SDS011;5840;46.894;15.542;2023-03-01T00:03:56;23.83;;;21.03;;
11568;SDS011;5840;46.894;15.542;2023-03-01T00:06:24;23.07;;;20.77;;
11568;SDS011;5840;46.894;15.542;2023-03-01T00:08:51;23.33;;;20.90;;
11568;SDS011;5840;46.894;15.542;2023-03-01T00:11:20;25.33;;;22.73;;
11568;SDS011;5840;46.894;15.542;2023-03-01T00:13:51;24.03;;;21.47;;
11568;SDS011;5840;46.894;15.542;2023-03-01T00:16:20;23.50;;;21.03;;
11568;SDS011;5840;46.894;15.542;2023-03-01T00:18:48;24.23;;;21.80;;
11568;SDS011;5840;46.894;15.542;2023-03-01T00:21:15;22.47;;;20.27;;
11568;SDS011;5840;46.894;15.542;2023-03-01T00:23:42;20.97;;;18.87;;
11568;SDS011;5840;46.894;15.542;2023-03-01T00:26:10;23.47;;;21.07;;
11568;SDS011;5840;46.894;15.542;2023-03-01T00:28:41;21.97;;;19.77;;
11568;SDS011;5840;46.894;15.542;2023-03-01T00:31:10;23.73;;;21.20;;
11568;SDS011;5840;46.894;15.542;2023-03-01T00:33:38;22.23;;;19.97;;
11568;SDS011;5840;46.894;15.542;2023-03-01T00:36:06;22.77;;;20.43;;
11568;SDS011;5840;46.894;15.542;2023-03-01T00:38:34;23.43;;;21.03;;
11568;SDS011;5840;46.894;15.542;2023-03-01T00:41:02;23.33;;;20.83;;
11568;SDS011;5840;46.894;15.542;2023-03-01T00:43:31;24.00;;;21.13;;
11568;SDS011;5840;46.894;15.542;2023-03-01T00:46:03;22.63;;;20.17;;
11568;SDS011;5840;46.894;15.542;2023-03-01T00:48:31;24.50;;;21.27;;
11568;SDS011;5840;46.894;15.542;2023-03-01T00:51:03;23.50;;;21.00;;
11568;SDS011;5840;46.894;15.542;2023-03-01T00:53:31;22.80;;;20.47;;
11568;SDS011;5840;46.894;15.542;2023-03-01T00:55:58;23.40;;;20.87;;
11568;SDS011;5840;46.894;15.542;2023-03-01T00:58:25;25.40;;;21.90;;
11568;SDS011;5840;46.894;15.542;2023-03-01T01:00:52;22.37;;;20.07;;
11568;SDS011;5840;46.894;15.542;2023-03-01T01:03:21;22.77;;;20.47;;
11568;SDS011;5840;46.894;15.542;2023-03-01T01:05:49;22.00;;;19.70;;
11568;SDS011;5840;46.894;15.542;2023-03-01T01:08:16;22.77;;;20.47;;
11568;SDS011;5840;46.894;15.542;2023-03-01T01:10:44;23.20;;;20.80;;
11568;SDS011;5840;46.894;15.542;2023-03-01T01:13:11;23.00;;;20.70;;
11568;SDS011;5840;46.894;15.542;2023-03-01T01:15:39;23.83;;;21.07;;
11568;SDS011;5840;46.894;15.542;2023-03-01T01:18:06;22.57;;;20.27;;
11568;SDS011;5840;46.894;15.542;2023-03-01T01:20:36;23.60;;;21.00;;
11568;SDS011;5840;46.894;15.542;2023-03-01T01:23:04;22.50;;;20.17;;
11568;SDS011;5840;46.894;15.542;2023-03-01T01:25:34;24.13;;;21.70;;
11568;SDS011;5840;46.894;15.542;2023-03-01T01:28:02;22.90;;;20.60;;
11568;SDS011;5840;46.894;15.542;2023-03-01T01:30:29;23.77;;;21.27;;
11568;SDS011;5840;46.894;15.542;2023-03-01T01:32:56;23.97;;;21.47;;
11568;SDS011;5840;46.894;15.542;2023-03-01T01:35:23;22.00;;;19.53;;
11568;SDS011;5840;46.894;15.542;2023-03-01T01:37:51;23.93;;;20.60;;
11568;SDS011;5840;46.894;15.542;2023-03-01T01:40:18;23.33;;;20.80;;
11568;SDS011;5840;46.894;15.542;2023-03-01T01:42:45;21.17;;;18.87;;
11568;SDS011;5840;46.894;15.542;2023-03-01T01:45:26;21.63;;;19.43;;
11568;SDS011;5840;46.894;15.542;2023-03-01T01:47:57;19.43;;;17.37;;
11568;SDS011;5840;46.894;15.542;2023-03-01T01:50:28;20.50;;;18.30;;
11568;SDS011;5840;46.894;15.542;2023-03-01T01:53:04;20.50;;;18.33;;
11568;SDS011;5840;46.894;15.542;2023-03-01T01:55:35;20.70;;;18.57;;
11568;SDS011;5840;46.894;15.542;2023-03-01T01:58:05;21.10;;;19.00;;
11568;SDS011;5840;46.894;15.542;2023-03-01T02:00:35;19.53;;;17.53;;
11568;SDS011;5840;46.894;15.542;2023-03-01T02:03:06;19.70;;;17.60;;
11568;SDS011;5840;46.894;15.542;2023-03-01T02:05:37;21.70;;;19.47;;
11568;SDS011;5840;46.894;15.542;2023-03-01T02:08:11;21.70;;;19.47;;
11568;SDS011;5840;46.894;15.542;2023-03-01T02:10:40;20.97;;;18.87;;
11568;SDS011;5840;46.894;15.542;2023-03-01T02:13:07;21.43;;;19.13;;
11568;SDS011;5840;46.894;15.542;2023-03-01T02:15:35;22.27;;;20.10;;
11568;SDS011;5840;46.894;15.542;2023-03-01T02:18:04;21.07;;;18.87;;
11568;SDS011;5840;46.894;15.542;2023-03-01T02:20:33;20.73;;;18.63;;
11568;SDS011;5840;46.894;15.542;2023-03-01T02:23:05;20.30;;;18.23;;
11568;SDS011;5840;46.894;15.542;2023-03-01T02:25:37;20.77;;;18.57;;
11568;SDS011;5840;46.894;15.542;2023-03-01T02:28:20;20.43;;;18.43;;
11568;SDS011;5840;46.894;15.542;2023-03-01T02:30:56;18.67;;;16.83;;
11568;SDS011;5840;46.894;15.542;2023-03-01T02:33:41;20.03;;;17.70;;
11568;SDS011;5840;46.894;15.542;2023-03-01T02:36:09;19.77;;;17.80;;
11568;SDS011;5840;46.894;15.542;2023-03-01T02:38:40;20.30;;;17.50;;
11568;SDS011;5840;46.894;15.542;2023-03-01T02:41:08;19.63;;;17.50;;
11568;SDS011;5840;46.894;15.542;2023-03-01T02:43:38;19.50;;;17.50;;
11568;SDS011;5840;46.894;15.542;2023-03-01T02:46:07;18.57;;;16.63;;
11568;SDS011;5840;46.894;15.542;2023-03-01T02:48:40;18.73;;;16.83;;
11568;SDS011;5840;46.894;15.542;2023-03-01T02:51:10;19.60;;;17.70;;
11568;SDS011;5840;46.894;15.542;2023-03-01T02:53:52;19.77;;;17.80;;
11568;SDS011;5840;46.894;15.542;2023-03-01T02:56:25;19.20;;;17.33;;
11568;SDS011;5840;46.894;15.542;2023-03-01T02:58:53;18.07;;;16.17;;
11568;SDS011;5840;46.894;15.542;2023-03-01T03:01:25;17.83;;;16.13;;
11568;SDS011;5840;46.894;15.542;2023-03-01T03:04:01;17.60;;;15.90;;
11568;SDS011;5840;46.894;15.542;2023-03-01T03:06:29;17.83;;;16.03;;
11568;SDS011;5840;46.894;15.542;2023-03-01T03:08:56;19.57;;;17.63;;
11568;SDS011;5840;46.894;15.542;2023-03-01T03:11:24;20.70;;;18.27;;
11568;SDS011;5840;46.894;15.542;2023-03-01T03:13:51;20.67;;;18.63;;
11568;SDS011;5840;46.894;15.542;2023-03-01T03:16:19;20.77;;;18.87;;
11568;SDS011;5840;46.894;15.542;2023-03-01T03:18:47;21.17;;;18.93;;
11568;SDS011;5840;46.894;15.542;2023-03-01T03:21:15;21.17;;;18.97;;
11568;SDS011;5840;46.894;15.542;2023-03-01T03:23:42;21.93;;;19.70;;
11568;SDS011;5840;46.894;15.542;2023-03-01T03:26:09;19.67;;;17.73;;
11568;SDS011;5840;46.894;15.542;2023-03-01T03:28:40;20.50;;;18.40;;
11568;SDS011;5840;46.894;15.542;2023-03-01T03:31:07;22.17;;;18.70;;
11568;SDS011;5840;46.894;15.542;2023-03-01T03:33:36;19.87;;;17.87;;
11568;SDS011;5840;46.894;15.542;2023-03-01T03:36:03;21.63;;;19.47;;
11568;SDS011;5840;46.894;15.542;2023-03-01T03:38:31;20.67;;;18.57;;
11568;SDS011;5840;46.894;15.542;2023-03-01T03:41:02;21.00;;;18.90;;
11568;SDS011;5840;46.894;15.542;2023-03-01T03:43:31;20.53;;;18.60;;
11568;SDS011;5840;46.894;15.542;2023-03-01T03:46:00;20.13;;;18.13;;
11568;SDS011;5840;46.894;15.542;2023-03-01T03:48:30;18.73;;;16.83;;
11568;SDS011;5840;46.894;15.542;2023-03-01T03:51:00;18.73;;;16.83;;
11568;SDS011;5840;46.894;15.542;2023-03-01T03:53:30;19.40;;;17.27;;
11568;SDS011;5840;46.894;15.542;2023-03-01T03:55:57;17.90;;;16.00;;
11568;SDS011;5840;46.894;15.542;2023-03-01T03:58:25;19.03;;;17.07;;
11568;SDS011;5840;46.894;15.542;2023-03-01T04:00:53;18.03;;;16.03;;
11568;SDS011;5840;46.894;15.542;2023-03-01T04:03:22;17.90;;;16.13;;
11568;SDS011;5840;46.894;15.542;2023-03-01T04:05:50;17.50;;;15.80;;
11568;SDS011;5840;46.894;15.542;2023-03-01T04:08:19;17.40;;;14.80;;
11568;SDS011;5840;46.894;15.542;2023-03-01T04:10:47;17.80;;;16.10;;
11568;SDS011;5840;46.894;15.542;2023-03-01T04:13:15;18.00;;;16.17;;
11568;SDS011;5840;46.894;15.542;2023-03-01T04:15:44;16.17;;;14.57;;
11568;SDS011;5840;46.894;15.542;2023-03-01T04:18:12;16.73;;;15.03;;
11568;SDS011;5840;46.894;15.542;2023-03-01T04:20:40;16.83;;;15.20;;
11568;SDS011;5840;46.894;15.542;2023-03-01T04:23:09;17.83;;;15.80;;
11568;SDS011;5840;46.894;15.542;2023-03-01T04:25:40;17.73;;;15.87;;
11568;SDS011;5840;46.894;15.542;2023-03-01T04:28:09;18.47;;;16.57;;
11568;SDS011;5840;46.894;15.542;2023-03-01T04:30:37;16.30;;;14.63;;
11568;SDS011;5840;46.894;15.542;2023-03-01T04:33:05;15.63;;;14.10;;
11568;SDS011;5840;46.894;15.542;2023-03-01T04:35:34;17.60;;;15.90;;
11568;SDS011;5840;46.894;15.542;2023-03-01T04:38:02;16.50;;;14.83;;
11568;SDS011;5840;46.894;15.542;2023-03-01T04:40:29;16.93;;;15.33;;
11568;SDS011;5840;46.894;15.542;2023-03-01T04:42:57;16.70;;;15.10;;
11568;SDS011;5840;46.894;15.542;2023-03-01T04:45:24;18.23;;;16.33;;
11568;SDS011;5840;46.894;15.542;2023-03-01T04:47:52;18.07;;;16.20;;
11568;SDS011;5840;46.894;15.542;2023-03-01T04:50:20;17.90;;;16.03;;
11568;SDS011;5840;46.894;15.542;2023-03-01T04:52:48;17.80;;;15.83;;
11568;SDS011;5840;46.894;15.542;2023-03-01T04:55:15;17.50;;;15.70;;
11568;SDS011;5840;46.894;15.542;2023-03-01T04:57:42;19.27;;;17.03;;
11568;SDS011;5840;46.894;15.542;2023-03-01T05:00:12;18.17;;;16.33;;
11568;SDS011;5840;46.894;15.542;2023-03-01T05:02:49;18.20;;;16.33;;
11568;SDS011;5840;46.894;15.542;2023-03-01T05:05:22;18.40;;;16.37;;
11568;SDS011;5840;46.894;15.542;2023-03-01T05:07:51;17.10;;;15.50;;
11568;SDS011;5840;46.894;15.542;2023-03-01T05:10:19;17.23;;;15.53;;
11568;SDS011;5840;46.894;15.542;2023-03-01T05:12:46;17.50;;;15.73;;
11568;SDS011;5840;46.894;15.542;2023-03-01T05:15:15;18.40;;;16.63;;
11568;SDS011;5840;46.894;15.542;2023-03-01T05:17:42;19.43;;;17.43;;
11568;SDS011;5840;46.894;15.542;2023-03-01T05:20:09;17.73;;;15.87;;
11568;SDS011;5840;46.894;15.542;2023-03-01T05:22:37;18.00;;;16.20;;
11568;SDS011;5840;46.894;15.542;2023-03-01T05:25:04;17.63;;;15.93;;
11568;SDS011;5840;46.894;15.542;2023-03-01T05:27:32;16.53;;;14.97;;
11568;SDS011;5840;46.894;15.542;2023-03-01T05:30:00;17.00;;;15.33;;
11568;SDS011;5840;46.894;15.542;2023-03-01T05:32:40;16.77;;;15.07;;
11568;SDS011;5840;46.894;15.542;2023-03-01T05:35:09;19.60;;;17.70;;
11568;SDS011;5840;46.894;15.542;2023-03-01T05:37:38;18.27;;;16.27;;
11568;SDS011;5840;46.894;15.542;2023-03-01T05:40:07;19.90;;;17.90;;
11568;SDS011;5840;46.894;15.542;2023-03-01T05:42:40;21.07;;;18.87;;
11568;SDS011;5840;46.894;15.542;2023-03-01T05:45:09;19.60;;;17.60;;
11568;SDS011;5840;46.894;15.542;2023-03-01T05:47:37;18.57;;;16.73;;
11568;SDS011;5840;46.894;15.542;2023-03-01T05:50:10;18.93;;;17.07;;
11568;SDS011;5840;46.894;15.542;2023-03-01T05:52:38;18.50;;;16.50;;
11568;SDS011;5840;46.894;15.542;2023-03-01T05:55:05;17.63;;;15.93;;
11568;SDS011;5840;46.894;15.542;2023-03-01T05:57:33;17.60;;;15.90;;
11568;SDS011;5840;46.894;15.542;2023-03-01T06:00:00;17.63;;;15.90;;
11568;SDS011;5840;46.894;15.542;2023-03-01T06:02:28;17.90;;;16.00;;
11568;SDS011;5840;46.894;15.542;2023-03-01T06:04:56;17.63;;;15.90;;
11568;SDS011;5840;46.894;15.542;2023-03-01T06:07:23;17.53;;;15.73;;
11568;SDS011;5840;46.894;15.542;2023-03-01T06:09:50;16.97;;;15.33;;
11568;SDS011;5840;46.894;15.542;2023-03-01T06:12:17;18.27;;;16.37;;
11568;SDS011;5840;46.894;15.542;2023-03-01T06:14:44;17.40;;;15.60;;
11568;SDS011;5840;46.894;15.542;2023-03-01T06:17:13;17.63;;;15.93;;
11568;SDS011;5840;46.894;15.542;2023-03-01T06:19:40;18.47;;;16.67;;
11568;SDS011;5840;46.894;15.542;2023-03-01T06:22:08;17.37;;;15.67;;
11568;SDS011;5840;46.894;15.542;2023-03-01T06:24:35;18.07;;;16.27;;
11568;SDS011;5840;46.894;15.542;2023-03-01T06:27:02;17.40;;;15.57;;
11568;SDS011;5840;46.894;15.542;2023-03-01T06:29:29;17.43;;;15.73;;
11568;SDS011;5840;46.894;15.542;2023-03-01T06:31:56;18.13;;;16.30;;
11568;SDS011;5840;46.894;15.542;2023-03-01T06:34:23;17.97;;;16.07;;
11568;SDS011;5840;46.894;15.542;2023-03-01T06:36:50;18.50;;;16.60;;
11568;SDS011;5840;46.894;15.542;2023-03-01T06:39:18;18.67;;;16.87;;
11568;SDS011;5840;46.894;15.542;2023-03-01T06:41:45;17.90;;;16.00;;
11568;SDS011;5840;46.894;15.542;2023-03-01T06:44:12;17.73;;;16.03;;
11568;SDS011;5840;46.894;15.542;2023-03-01T06:46:39;18.03;;;16.13;;
11568;SDS011;5840;46.894;15.542;2023-03-01T06:49:06;17.00;;;15.40;;
11568;SDS011;5840;46.894;15.542;2023-03-01T06:51:34;16.70;;;15.10;;
11568;SDS011;5840;46.894;15.542;2023-03-01T06:54:02;18.27;;;16.57;;
11568;SDS011;5840;46.894;15.542;2023-03-01T06:56:31;16.53;;;14.93;;
11568;SDS011;5840;46.894;15.542;2023-03-01T06:58:59;17.23;;;15.57;;
11568;SDS011;5840;46.894;15.542;2023-03-01T07:01:27;17.20;;;15.60;;
11568;SDS011;5840;46.894;15.542;2023-03-01T07:03:54;18.70;;;16.80;;
11568;SDS011;5840;46.894;15.542;2023-03-01T07:06:22;17.30;;;15.50;;
11568;SDS011;5840;46.894;15.542;2023-03-01T07:08:49;17.57;;;15.87;;
11568;SDS011;5840;46.894;15.542;2023-03-01T07:11:16;16.17;;;14.47;;
11568;SDS011;5840;46.894;15.542;2023-03-01T07:13:44;17.30;;;15.70;;
11568;SDS011;5840;46.894;15.542;2023-03-01T07:16:11;17.07;;;15.40;;
11568;SDS011;5840;46.894;15.542;2023-03-01T07:18:39;20.83;;;18.70;;
11568;SDS011;5840;46.894;15.542;2023-03-01T07:21:06;23.90;;;21.40;;
11568;SDS011;5840;46.894;15.542;2023-03-01T07:23:35;23.83;;;21.43;;
11568;SDS011;5840;46.894;15.542;2023-03-01T07:26:02;21.67;;;19.47;;
11568;SDS011;5840;46.894;15.542;2023-03-01T07:28:29;22.50;;;20.10;;
11568;SDS011;5840;46.894;15.542;2023-03-01T07:31:02;23.67;;;21.37;;
11568;SDS011;5840;46.894;15.542;2023-03-01T07:33:29;20.63;;;18.63;;
11568;SDS011;5840;46.894;15.542;2023-03-01T07:35:57;21.70;;;19.37;;
11568;SDS011;5840;46.894;15.542;2023-03-01T07:38:25;22.00;;;19.90;;
11568;SDS011;5840;46.894;15.542;2023-03-01T07:40:52;21.97;;;19.77;;
11568;SDS011;5840;46.894;15.542;2023-03-01T07:43:19;20.70;;;18.80;;
11568;SDS011;5840;46.894;15.542;2023-03-01T07:45:46;22.57;;;20.27;;
11568;SDS011;5840;46.894;15.542;2023-03-01T07:48:14;21.13;;;19.03;;
11568;SDS011;5840;46.894;15.542;2023-03-01T07:50:41;21.27;;;19.07;;
11568;SDS011;5840;46.894;15.542;2023-03-01T07:53:09;21.63;;;19.53;;
11568;SDS011;5840;46.894;15.542;2023-03-01T07:55:36;21.40;;;19.20;;
11568;SDS011;5840;46.894;15.542;2023-03-01T07:58:04;21.30;;;19.20;;
11568;SDS011;5840;46.894;15.542;2023-03-01T08:00:32;23.30;;;20.80;;
11568;SDS011;5840;46.894;15.542;2023-03-01T08:02:59;21.17;;;19.03;;
11568;SDS011;5840;46.894;15.542;2023-03-01T08:05:28;20.87;;;18.87;;
11568;SDS011;5840;46.894;15.542;2023-03-01T08:07:55;19.07;;;17.07;;
11568;SDS011;5840;46.894;15.542;2023-03-01T08:10:23;20.00;;;17.90;;
11568;SDS011;5840;46.894;15.542;2023-03-01T08:12:50;21.27;;;19.00;;
11568;SDS011;5840;46.894;15.542;2023-03-01T08:15:18;19.07;;;17.17;;
11568;SDS011;5840;46.894;15.542;2023-03-01T08:17:46;19.70;;;17.73;;
11568;SDS011;5840;46.894;15.542;2023-03-01T08:20:15;19.33;;;17.43;;
11568;SDS011;5840;46.894;15.542;2023-03-01T08:22:44;20.23;;;18.13;;
11568;SDS011;5840;46.894;15.542;2023-03-01T08:25:11;20.00;;;17.90;;
11568;SDS011;5840;46.894;15.542;2023-03-01T08:27:38;20.97;;;18.80;;
11568;SDS011;5840;46.894;15.542;2023-03-01T08:30:05;20.53;;;18.40;;
11568;SDS011;5840;46.894;15.542;2023-03-01T08:32:35;18.80;;;16.90;;
11568;SDS011;5840;46.894;15.542;2023-03-01T08:35:03;19.53;;;17.47;;
11568;SDS011;5840;46.894;15.542;2023-03-01T08:37:31;19.73;;;17.60;;
11568;SDS011;5840;46.894;15.542;2023-03-01T08:39:59;18.20;;;16.47;;
11568;SDS011;5840;46.894;15.542;2023-03-01T08:42:28;20.13;;;17.70;;
11568;SDS011;5840;46.894;15.542;2023-03-01T08:44:55;19.73;;;17.57;;
11568;SDS011;5840;46.894;15.542;2023-03-01T08:47:22;20.87;;;18.30;;
11568;SDS011;5840;46.894;15.542;2023-03-01T08:49:49;19.10;;;17.10;;
11568;SDS011;5840;46.894;15.542;2023-03-01T08:52:17;21.13;;;17.90;;
11568;SDS011;5840;46.894;15.542;2023-03-01T08:54:45;19.77;;;16.73;;
11568;SDS011;5840;46.894;15.542;2023-03-01T08:57:15;22.17;;;18.20;;
11568;SDS011;5840;46.894;15.542;2023-03-01T08:59:42;28.80;;;19.60;;
11568;SDS011;5840;46.894;15.542;2023-03-01T09:02:11;30.50;;;19.10;;
11568;SDS011;5840;46.894;15.542;2023-03-01T09:04:39;20.23;;;18.10;;
11568;SDS011;5840;46.894;15.542;2023-03-01T09:07:06;18.73;;;16.87;;
11568;SDS011;5840;46.894;15.542;2023-03-01T09:09:34;20.63;;;18.43;;
11568;SDS011;5840;46.894;15.542;2023-03-01T09:12:02;21.73;;;18.87;;
11568;SDS011;5840;46.894;15.542;2023-03-01T09:14:30;21.60;;;18.40;;
11568;SDS011;5840;46.894;15.542;2023-03-01T09:16:58;22.43;;;18.73;;
11568;SDS011;5840;46.894;15.542;2023-03-01T09:19:27;26.33;;;18.27;;
11568;SDS011;5840;46.894;15.542;2023-03-01T09:21:54;28.47;;;19.30;;
11568;SDS011;5840;46.894;15.542;2023-03-01T09:24:23;28.87;;;19.20;;
11568;SDS011;5840;46.894;15.542;2023-03-01T09:26:53;19.77;;;17.67;;
11568;SDS011;5840;46.894;15.542;2023-03-01T09:29:21;19.97;;;18.07;;
11568;SDS011;5840;46.894;15.542;2023-03-01T09:31:49;20.07;;;17.97;;
11568;SDS011;5840;46.894;15.542;2023-03-01T09:34:20;19.90;;;17.87;;
11568;SDS011;5840;46.894;15.542;2023-03-01T09:36:48;22.40;;;17.67;;
11568;SDS011;5840;46.894;15.542;2023-03-01T09:39:16;22.87;;;19.07;;
11568;SDS011;5840;46.894;15.542;2023-03-01T09:41:45;20.10;;;18.07;;
11568;SDS011;5840;46.894;15.542;2023-03-01T09:44:21;23.37;;;18.27;;
11568;SDS011;5840;46.894;15.542;2023-03-01T09:46:57;27.63;;;19.80;;
11568;SDS011;5840;46.894;15.542;2023-03-01T09:49:26;20.30;;;18.20;;
11568;SDS011;5840;46.894;15.542;2023-03-01T09:51:56;20.57;;;18.27;;
11568;SDS011;5840;46.894;15.542;2023-03-01T09:54:26;20.63;;;18.53;;
11568;SDS011;5840;46.894;15.542;2023-03-01T09:57:02;20.67;;;18.47;;
11568;SDS011;5840;46.894;15.542;2023-03-01T09:59:36;21.30;;;17.73;;
11568;SDS011;5840;46.894;15.542;2023-03-01T10:02:21;22.07;;;19.47;;
11568;SDS011;5840;46.894;15.542;2023-03-01T10:04:54;21.33;;;17.87;;
11568;SDS011;5840;46.894;15.542;2023-03-01T10:07:27;20.23;;;18.13;;
11568;SDS011;5840;46.894;15.542;2023-03-01T10:09:58;21.27;;;18.27;;
11568;SDS011;5840;46.894;15.542;2023-03-01T10:12:31;23.33;;;18.80;;
11568;SDS011;5840;46.894;15.542;2023-03-01T10:15:04;20.47;;;18.33;;
11568;SDS011;5840;46.894;15.542;2023-03-01T10:17:37;21.30;;;18.57;;
11568;SDS011;5840;46.894;15.542;2023-03-01T10:20:19;19.97;;;17.93;;
11568;SDS011;5840;46.894;15.542;2023-03-01T10:22:48;22.50;;;18.63;;
11568;SDS011;5840;46.894;15.542;2023-03-01T10:25:20;21.53;;;18.10;;
11568;SDS011;5840;46.894;15.542;2023-03-01T10:28:02;20.77;;;18.67;;
11568;SDS011;5840;46.894;15.542;2023-03-01T10:30:38;21.93;;;17.77;;
11568;SDS011;5840;46.894;15.542;2023-03-01T10:33:11;19.73;;;17.60;;
11568;SDS011;5840;46.894;15.542;2023-03-01T10:35:43;20.87;;;18.50;;
11568;SDS011;5840;46.894;15.542;2023-03-01T10:38:10;21.10;;;18.23;;
11568;SDS011;5840;46.894;15.542;2023-03-01T10:40:49;20.73;;;18.27;;
11568;SDS011;5840;46.894;15.542;2023-03-01T10:43:19;21.03;;;18.83;;
11568;SDS011;5840;46.894;15.542;2023-03-01T10:45:46;22.57;;;19.20;;
11568;SDS011;5840;46.894;15.542;2023-03-01T10:48:16;20.23;;;17.87;;
11568;SDS011;5840;46.894;15.542;2023-03-01T10:50:45;21.27;;;18.17;;
11568;SDS011;5840;46.894;15.542;2023-03-01T10:56:00;21.47;;;19.03;;
11568;SDS011;5840;46.894;15.542;2023-03-01T10:58:30;22.20;;;19.20;;
11568;SDS011;5840;46.894;15.542;2023-03-01T11:00:58;22.00;;;19.37;;
11568;SDS011;5840;46.894;15.542;2023-03-01T11:03:28;20.37;;;18.10;;
11568;SDS011;5840;46.894;15.542;2023-03-01T11:05:58;23.03;;;18.80;;
11568;SDS011;5840;46.894;15.542;2023-03-01T11:08:31;21.77;;;18.77;;
11568;SDS011;5840;46.894;15.542;2023-03-01T11:11:04;21.77;;;19.37;;
11568;SDS011;5840;46.894;15.542;2023-03-01T11:13:50;21.13;;;18.93;;
11568;SDS011;5840;46.894;15.542;2023-03-01T11:16:24;21.67;;;18.57;;
11568;SDS011;5840;46.894;15.542;2023-03-01T11:18:57;22.47;;;19.23;;
11568;SDS011;5840;46.894;15.542;2023-03-01T11:21:27;21.67;;;19.43;;
11568;SDS011;5840;46.894;15.542;2023-03-01T11:23:57;24.07;;;19.40;;
11568;SDS011;5840;46.894;15.542;2023-03-01T11:26:26;21.63;;;19.43;;
11568;SDS011;5840;46.894;15.542;2023-03-01T11:28:56;24.80;;;19.87;;
11568;SDS011;5840;46.894;15.542;2023-03-01T11:31:30;23.37;;;19.23;;
11568;SDS011;5840;46.894;15.542;2023-03-01T11:33:59;22.53;;;19.47;;
11568;SDS011;5840;46.894;15.542;2023-03-01T11:36:32;22.63;;;18.93;;
11568;SDS011;5840;46.894;15.542;2023-03-01T11:39:10;22.33;;;19.03;;
11568;SDS011;5840;46.894;15.542;2023-03-01T11:41:44;21.57;;;18.83;;
11568;SDS011;5840;46.894;15.542;2023-03-01T11:44:19;22.00;;;19.23;;
11568;SDS011;5840;46.894;15.542;2023-03-01T11:47:00;22.37;;;19.97;;
11568;SDS011;5840;46.894;15.542;2023-03-01T11:49:47;24.00;;;20.53;;
11568;SDS011;5840;46.894;15.542;2023-03-01T11:52:37;22.60;;;18.33;;
11568;SDS011;5840;46.894;15.542;2023-03-01T11:55:17;23.40;;;19.80;;
11568;SDS011;5840;46.894;15.542;2023-03-01T11:57:59;20.87;;;18.33;;
11568;SDS011;5840;46.894;15.542;2023-03-01T12:00:51;24.70;;;20.07;;
11568;SDS011;5840;46.894;15.542;2023-03-01T12:03:33;22.60;;;20.20;;
11568;SDS011;5840;46.894;15.542;2023-03-01T12:06:28;20.77;;;18.57;;
11568;SDS011;5840;46.894;15.542;2023-03-01T12:09:17;23.27;;;20.30;;
11568;SDS011;5840;46.894;15.542;2023-03-01T12:12:07;23.10;;;20.43;;
11568;SDS011;5840;46.894;15.542;2023-03-01T12:14:55;27.33;;;20.23;;
11568;SDS011;5840;46.894;15.542;2023-03-01T12:17:37;22.63;;;19.27;;
11568;SDS011;5840;46.894;15.542;2023-03-01T12:20:21;23.40;;;20.00;;
11568;SDS011;5840;46.894;15.542;2023-03-01T12:26:08;22.93;;;20.53;;
11568;SDS011;5840;46.894;15.542;2023-03-01T12:28:45;24.83;;;20.20;;
11568;SDS011;5840;46.894;15.542;2023-03-01T12:31:31;23.00;;;20.47;;
11568;SDS011;5840;46.894;15.542;2023-03-01T12:34:12;24.43;;;19.07;;
11568;SDS011;5840;46.894;15.542;2023-03-01T12:36:56;23.33;;;20.83;;
11568;SDS011;5840;46.894;15.542;2023-03-01T12:39:54;22.80;;;20.10;;
11568;SDS011;5840;46.894;15.542;2023-03-01T12:42:33;22.27;;;19.53;;
11568;SDS011;5840;46.894;15.542;2023-03-01T12:45:21;21.43;;;18.80;;
11568;SDS011;5840;46.894;15.542;2023-03-01T12:48:13;21.30;;;19.20;;
11568;SDS011;5840;46.894;15.542;2023-03-01T12:50:55;22.87;;;20.37;;
11568;SDS011;5840;46.894;15.542;2023-03-01T12:53:26;20.87;;;18.60;;
11568;SDS011;5840;46.894;15.542;2023-03-01T12:55:58;24.30;;;19.97;;
11568;SDS011;5840;46.894;15.542;2023-03-01T12:58:30;23.20;;;19.83;;
11568;SDS011;5840;46.894;15.542;2023-03-01T13:01:08;23.00;;;19.50;;
11568;SDS011;5840;46.894;15.542;2023-03-01T13:03:59;22.97;;;20.43;;
11568;SDS011;5840;46.894;15.542;2023-03-01T13:06:41;20.67;;;18.50;;
11568;SDS011;5840;46.894;15.542;2023-03-01T13:09:15;22.00;;;19.27;;
11568;SDS011;5840;46.894;15.542;2023-03-01T13:11:49;21.93;;;19.67;;
11568;SDS011;5840;46.894;15.542;2023-03-01T13:14:37;22.40;;;19.30;;
11568;SDS011;5840;46.894;15.542;2023-03-01T13:20:11;22.93;;;20.53;;
11568;SDS011;5840;46.894;15.542;2023-03-01T13:22:42;22.30;;;20.00;;
11568;SDS011;5840;46.894;15.542;2023-03-01T13:25:13;23.43;;;19.80;;
11568;SDS011;5840;46.894;15.542;2023-03-01T13:27:42;20.37;;;18.10;;
11568;SDS011;5840;46.894;15.542;2023-03-01T13:36:11;19.03;;;17.13;;
11568;SDS011;5840;46.894;15.542;2023-03-01T13:39:27;22.47;;;19.47;;
11568;SDS011;5840;46.894;15.542;2023-03-01T13:41:57;20.90;;;18.63;;
11568;SDS011;5840;46.894;15.542;2023-03-01T13:44:26;23.30;;;20.17;;
11568;SDS011;5840;46.894;15.542;2023-03-01T13:47:02;22.30;;;19.43;;
11568;SDS011;5840;46.894;15.542;2023-03-01T13:49:43;21.73;;;19.40;;
11568;SDS011;5840;46.894;15.542;2023-03-01T13:52:26;22.17;;;18.80;;
11568;SDS011;5840;46.894;15.542;2023-03-01T13:55:06;21.03;;;18.83;;
11568;SDS011;5840;46.894;15.542;2023-03-01T13:57:44;21.40;;;19.10;;
11568;SDS011;5840;46.894;15.542;2023-03-01T14:00:25;20.83;;;18.63;;
11568;SDS011;5840;46.894;15.542;2023-03-01T14:03:08;20.53;;;17.67;;
11568;SDS011;5840;46.894;15.542;2023-03-01T14:05:37;20.30;;;18.20;;
11568;SDS011;5840;46.894;15.542;2023-03-01T14:08:05;20.33;;;18.23;;
11568;SDS011;5840;46.894;15.542;2023-03-01T14:10:51;20.03;;;17.97;;
11568;SDS011;5840;46.894;15.542;2023-03-01T14:13:30;20.93;;;18.77;;
11568;SDS011;5840;46.894;15.542;2023-03-01T14:16:11;21.67;;;18.97;;
11568;SDS011;5840;46.894;15.542;2023-03-01T14:18:52;21.90;;;19.40;;
11568;SDS011;5840;46.894;15.542;2023-03-01T14:21:25;20.43;;;17.80;;
11568;SDS011;5840;46.894;15.542;2023-03-01T14:23:52;19.67;;;17.23;;
11568;SDS011;5840;46.894;15.542;2023-03-01T14:26:20;21.10;;;18.63;;
11568;SDS011;5840;46.894;15.542;2023-03-01T14:28:48;21.60;;;17.27;;
11568;SDS011;5840;46.894;15.542;2023-03-01T14:31:30;22.03;;;17.77;;
11568;SDS011;5840;46.894;15.542;2023-03-01T14:34:01;19.30;;;17.23;;
11568;SDS011;5840;46.894;15.542;2023-03-01T14:36:30;18.77;;;16.87;;
11568;SDS011;5840;46.894;15.542;2023-03-01T14:38:59;19.60;;;17.60;;
11568;SDS011;5840;46.894;15.542;2023-03-01T14:41:30;20.20;;;17.83;;
11568;SDS011;5840;46.894;15.542;2023-03-01T14:44:00;19.83;;;17.53;;
11568;SDS011;5840;46.894;15.542;2023-03-01T14:46:32;18.80;;;16.90;;
11568;SDS011;5840;46.894;15.542;2023-03-01T14:49:03;19.97;;;17.87;;
11568;SDS011;5840;46.894;15.542;2023-03-01T14:51:35;20.73;;;18.43;;
11568;SDS011;5840;46.894;15.542;2023-03-01T14:54:04;20.90;;;18.50;;
11568;SDS011;5840;46.894;15.542;2023-03-01T14:56:43;22.03;;;18.90;;
11568;SDS011;5840;46.894;15.542;2023-03-01T14:59:10;20.93;;;18.80;;